sensor_id;sensor_type;location;lat;lon;timestamp;pressure;altitude;pressure_sealevel;temperature;humidity
71964;BME280;59834;52.124;5.422;2023-07-31T00:01:12;100978.59;;;14.89;100.00
71964;BME280;59834;52.124;5.422;2023-07-31T00:03:39;100989.03;;;14.90;100.00
71964;BME280;59834;52.124;5.422;2023-07-31T00:06:06;100981.34;;;14.87;100.00
71964;BME280;59834;52.124;5.422;2023-07-31T00:08:32;100979.78;;;14.84;100.00
71964;BME280;59834;52.124;5.422;2023-07-31T00:10:59;100973.22;;;14.90;100.00
71964;BME280;59834;52.124;5.422;2023-07-31T00:13:25;100966.88;;;14.93;100.00
71964;BME280;59834;52.124;5.422;2023-07-31T00:15:52;100955.09;;;14.97;100.00
71964;BME280;59834;52.124;5.422;2023-07-31T00:18:19;100947.78;;;15.00;100.00
71964;BME280;59834;52.124;5.422;2023-07-31T00:20:45;100940.34;;;15.05;100.00
71964;BME280;59834;52.124;5.422;2023-07-31T00:23:12;100939.75;;;15.13;100.00
71964;BME280;59834;52.124;5.422;2023-07-31T00:25:39;100941.31;;;15.16;100.00
71964;BME280;59834;52.124;5.422;2023-07-31T00:28:05;100934.31;;;15.15;100.00
71964;BME280;59834;52.124;5.422;2023-07-31T00:30:32;100941.88;;;15.19;100.00
71964;BME280;59834;52.124;5.422;2023-07-31T00:32:59;100935.50;;;15.22;100.00
71964;BME280;59834;52.124;5.422;2023-07-31T00:35:26;100936.47;;;15.21;100.00
71964;BME280;59834;52.124;5.422;2023-07-31T00:37:52;100929.97;;;15.25;100.00
71964;BME280;59834;52.124;5.422;2023-07-31T00:40:19;100934.16;;;15.27;100.00
71964;BME280;59834;52.124;5.422;2023-07-31T00:42:45;100927.81;;;15.30;100.00
71964;BME280;59834;52.124;5.422;2023-07-31T00:45:12;100933.44;;;15.37;100.00
71964;BME280;59834;52.124;5.422;2023-07-31T00:47:39;100921.50;;;15.42;100.00
71964;BME280;59834;52.124;5.422;2023-07-31T00:50:06;100920.91;;;15.50;100.00
71964;BME280;59834;52.124;5.422;2023-07-31T00:52:35;100921.09;;;15.58;100.00
71964;BME280;59834;52.124;5.422;2023-07-31T00:55:03;100917.81;;;15.66;100.00
71964;BME280;59834;52.124;5.422;2023-07-31T00:57:32;100919.03;;;15.73;100.00
71964;BME280;59834;52.124;5.422;2023-07-31T01:00:00;100922.94;;;15.78;100.00
71964;BME280;59834;52.124;5.422;2023-07-31T01:02:26;100915.59;;;15.82;100.00
71964;BME280;59834;52.124;5.422;2023-07-31T01:04:53;100918.81;;;15.86;100.00
71964;BME280;59834;52.124;5.422;2023-07-31T01:07:27;100907.16;;;15.88;100.00
71964;BME280;59834;52.124;5.422;2023-07-31T01:12:38;100904.00;;;15.94;100.00
71964;BME280;59834;52.124;5.422;2023-07-31T01:15:09;100895.00;;;15.97;100.00
71964;BME280;59834;52.124;5.422;2023-07-31T01:17:38;100901.09;;;15.97;100.00
71964;BME280;59834;52.124;5.422;2023-07-31T01:20:24;100924.72;;;15.99;100.00
71964;BME280;59834;52.124;5.422;2023-07-31T01:26:42;100916.69;;;16.00;100.00
71964;BME280;59834;52.124;5.422;2023-07-31T01:29:14;100917.50;;;16.01;100.00
71964;BME280;59834;52.124;5.422;2023-07-31T01:31:45;100907.06;;;15.99;100.00
71964;BME280;59834;52.124;5.422;2023-07-31T01:34:15;100906.13;;;16.00;100.00
71964;BME280;59834;52.124;5.422;2023-07-31T01:36:44;100912.22;;;16.01;100.00
71964;BME280;59834;52.124;5.422;2023-07-31T01:39:10;100911.41;;;16.00;100.00
71964;BME280;59834;52.124;5.422;2023-07-31T01:41:37;100914.03;;;16.00;100.00
71964;BME280;59834;52.124;5.422;2023-07-31T01:44:04;100914.88;;;16.01;100.00
71964;BME280;59834;52.124;5.422;2023-07-31T01:46:31;100920.16;;;16.01;100.00
71964;BME280;59834;52.124;5.422;2023-07-31T01:48:58;100912.22;;;16.01;100.00
71964;BME280;59834;52.124;5.422;2023-07-31T01:51:24;100906.13;;;16.00;100.00
71964;BME280;59834;52.124;5.422;2023-07-31T01:53:51;100901.69;;;16.01;100.00
71964;BME280;59834;52.124;5.422;2023-07-31T01:56:17;100891.94;;;16.01;100.00
71964;BME280;59834;52.124;5.422;2023-07-31T01:58:44;100896.41;;;16.01;100.00
71964;BME280;59834;52.124;5.422;2023-07-31T02:01:10;100889.44;;;16.00;100.00
71964;BME280;59834;52.124;5.422;2023-07-31T02:03:37;100893.59;;;16.02;100.00
71964;BME280;59834;52.124;5.422;2023-07-31T02:06:04;100892.78;;;16.02;100.00
71964;BME280;59834;52.124;5.422;2023-07-31T02:08:30;100891.13;;;16.01;100.00
71964;BME280;59834;52.124;5.422;2023-07-31T02:10:57;100885.13;;;15.99;100.00
71964;BME280;59834;52.124;5.422;2023-07-31T02:13:23;100888.88;;;15.96;100.00
71964;BME280;59834;52.124;5.422;2023-07-31T02:15:50;100874.97;;;15.94;100.00
71964;BME280;59834;52.124;5.422;2023-07-31T02:18:17;100874.25;;;15.92;100.00
71964;BME280;59834;52.124;5.422;2023-07-31T02:20:51;100876.19;;;15.90;100.00
71964;BME280;59834;52.124;5.422;2023-07-31T02:23:18;100857.72;;;15.90;100.00
71964;BME280;59834;52.124;5.422;2023-07-31T02:25:45;100853.53;;;15.88;100.00
71964;BME280;59834;52.124;5.422;2023-07-31T02:28:12;100859.78;;;15.87;100.00
71964;BME280;59834;52.124;5.422;2023-07-31T02:30:39;100861.59;;;15.86;100.00
71964;BME280;59834;52.124;5.422;2023-07-31T02:33:05;100863.53;;;15.84;100.00
71964;BME280;59834;52.124;5.422;2023-07-31T02:35:32;100851.31;;;15.83;100.00
71964;BME280;59834;52.124;5.422;2023-07-31T02:37:58;100861.84;;;15.83;100.00
71964;BME280;59834;52.124;5.422;2023-07-31T02:40:25;100856.59;;;15.83;100.00
71964;BME280;59834;52.124;5.422;2023-07-31T02:42:52;100863.78;;;15.81;100.00
71964;BME280;59834;52.124;5.422;2023-07-31T02:45:18;100863.78;;;15.81;100.00
71964;BME280;59834;52.124;5.422;2023-07-31T02:47:45;100858.50;;;15.81;100.00
71964;BME280;59834;52.124;5.422;2023-07-31T02:50:11;100859.34;;;15.82;100.00
71964;BME280;59834;52.124;5.422;2023-07-31T02:52:38;100858.50;;;15.81;100.00
71964;BME280;59834;52.124;5.422;2023-07-31T02:55:05;100851.69;;;15.78;100.00
71964;BME280;59834;52.124;5.422;2023-07-31T02:57:32;100842.94;;;15.78;100.00
71964;BME280;59834;52.124;5.422;2023-07-31T02:59:59;100841.13;;;15.78;100.00
71964;BME280;59834;52.124;5.422;2023-07-31T03:02:25;100847.47;;;15.76;100.00
71964;BME280;59834;52.124;5.422;2023-07-31T03:04:52;100843.91;;;15.77;100.00
71964;BME280;59834;52.124;5.422;2023-07-31T03:07:18;100835.28;;;15.75;100.00
71964;BME280;59834;52.124;5.422;2023-07-31T03:09:45;100844.16;;;15.74;100.00
71964;BME280;59834;52.124;5.422;2023-07-31T03:12:12;100844.16;;;15.74;100.00
71964;BME280;59834;52.124;5.422;2023-07-31T03:14:38;100852.06;;;15.74;100.00
71964;BME280;59834;52.124;5.422;2023-07-31T03:17:05;100844.00;;;15.75;100.00
71964;BME280;59834;52.124;5.422;2023-07-31T03:19:32;100842.34;;;15.74;100.00
71964;BME280;59834;52.124;5.422;2023-07-31T03:21:59;100843.19;;;15.75;100.00
71964;BME280;59834;52.124;5.422;2023-07-31T03:24:26;100833.59;;;15.74;100.00
71964;BME280;59834;52.124;5.422;2023-07-31T03:26:52;100843.44;;;15.72;100.00
71964;BME280;59834;52.124;5.422;2023-07-31T03:29:19;100838.06;;;15.73;100.00
71964;BME280;59834;52.124;5.422;2023-07-31T03:31:50;100837.34;;;15.71;100.00
71964;BME280;59834;52.124;5.422;2023-07-31T03:34:17;100830.41;;;15.70;100.00
71964;BME280;59834;52.124;5.422;2023-07-31T03:36:43;100833.03;;;15.70;100.00
71964;BME280;59834;52.124;5.422;2023-07-31T03:39:10;100836.75;;;15.68;100.00
71964;BME280;59834;52.124;5.422;2023-07-31T03:41:37;100838.78;;;15.64;100.00
71964;BME280;59834;52.124;5.422;2023-07-31T03:44:03;100842.25;;;15.65;100.00
71964;BME280;59834;52.124;5.422;2023-07-31T03:46:30;100834.59;;;15.62;100.00
71964;BME280;59834;52.124;5.422;2023-07-31T03:48:57;100839.78;;;15.63;100.00
71964;BME280;59834;52.124;5.422;2023-07-31T03:51:23;100833.66;;;15.63;100.00
71964;BME280;59834;52.124;5.422;2023-07-31T03:53:50;100830.16;;;15.62;100.00
71964;BME280;59834;52.124;5.422;2023-07-31T03:56:16;100833.66;;;15.63;100.00
71964;BME280;59834;52.124;5.422;2023-07-31T03:58:43;100833.66;;;15.63;100.00
71964;BME280;59834;52.124;5.422;2023-07-31T04:01:10;100830.31;;;15.61;100.00
71964;BME280;59834;52.124;5.422;2023-07-31T04:03:36;100825.84;;;15.61;100.00
71964;BME280;59834;52.124;5.422;2023-07-31T04:06:03;100819.03;;;15.59;100.00
71964;BME280;59834;52.124;5.422;2023-07-31T04:08:29;100817.38;;;15.57;100.00
71964;BME280;59834;52.124;5.422;2023-07-31T04:10:56;100820.97;;;15.56;100.00
71964;BME280;59834;52.124;5.422;2023-07-31T04:13:22;100813.31;;;15.53;100.00
71964;BME280;59834;52.124;5.422;2023-07-31T04:15:50;100801.38;;;15.49;100.00
71964;BME280;59834;52.124;5.422;2023-07-31T04:18:17;100796.09;;;15.49;100.00
71964;BME280;59834;52.124;5.422;2023-07-31T04:20:44;100798.00;;;15.47;100.00
71964;BME280;59834;52.124;5.422;2023-07-31T04:23:11;100795.50;;;15.46;100.00
71964;BME280;59834;52.124;5.422;2023-07-31T04:25:37;100785.81;;;15.46;100.00
71964;BME280;59834;52.124;5.422;2023-07-31T04:28:04;100784.09;;;15.45;100.00
71964;BME280;59834;52.124;5.422;2023-07-31T04:30:31;100793.81;;;15.45;100.00
71964;BME280;59834;52.124;5.422;2023-07-31T04:32:57;100782.19;;;15.47;100.00
71964;BME280;59834;52.124;5.422;2023-07-31T04:35:24;100785.81;;;15.46;100.00
71964;BME280;59834;52.124;5.422;2023-07-31T04:37:50;100791.75;;;15.48;100.00
71964;BME280;59834;52.124;5.422;2023-07-31T04:40:17;100798.72;;;15.49;100.00
71964;BME280;59834;52.124;5.422;2023-07-31T04:42:44;100802.19;;;15.50;100.00
71964;BME280;59834;52.124;5.422;2023-07-31T04:45:10;100797.63;;;15.52;100.00
71964;BME280;59834;52.124;5.422;2023-07-31T04:47:37;100790.81;;;15.49;100.00
71964;BME280;59834;52.124;5.422;2023-07-31T04:50:04;100792.59;;;15.49;100.00
71964;BME280;59834;52.124;5.422;2023-07-31T04:52:30;100798.72;;;15.49;100.00
71964;BME280;59834;52.124;5.422;2023-07-31T04:54:57;100787.22;;;15.50;100.00
71964;BME280;59834;52.124;5.422;2023-07-31T04:57:24;100789.97;;;15.49;100.00
71964;BME280;59834;52.124;5.422;2023-07-31T04:59:50;100780.53;;;15.46;100.00
71964;BME280;59834;52.124;5.422;2023-07-31T05:02:17;100773.56;;;15.45;100.00
71964;BME280;59834;52.124;5.422;2023-07-31T05:04:43;100769.41;;;15.43;100.00
71964;BME280;59834;52.124;5.422;2023-07-31T05:07:10;100771.19;;;15.42;100.00
71964;BME280;59834;52.124;5.422;2023-07-31T05:09:37;100766.88;;;15.41;100.00
71964;BME280;59834;52.124;5.422;2023-07-31T05:12:05;100768.13;;;15.37;100.00
71964;BME280;59834;52.124;5.422;2023-07-31T05:14:32;100770.19;;;15.33;100.00
71964;BME280;59834;52.124;5.422;2023-07-31T05:16:59;100771.25;;;15.31;100.00
71964;BME280;59834;52.124;5.422;2023-07-31T05:19:25;100762.38;;;15.32;100.00
71964;BME280;59834;52.124;5.422;2023-07-31T05:21:52;100767.66;;;15.32;100.00
71964;BME280;59834;52.124;5.422;2023-07-31T05:24:19;100766.97;;;15.30;100.00
71964;BME280;59834;52.124;5.422;2023-07-31T05:26:45;100767.78;;;15.30;100.00
71964;BME280;59834;52.124;5.422;2023-07-31T05:29:12;100764.31;;;15.30;100.00
71964;BME280;59834;52.124;5.422;2023-07-31T05:31:38;100752.22;;;15.27;100.00
71964;BME280;59834;52.124;5.422;2023-07-31T05:34:05;100764.59;;;15.27;100.00
71964;BME280;59834;52.124;5.422;2023-07-31T05:36:32;100747.22;;;15.24;100.00
71964;BME280;59834;52.124;5.422;2023-07-31T05:38:59;100750.94;;;15.22;100.00
71964;BME280;59834;52.124;5.422;2023-07-31T05:41:25;100746.63;;;15.21;100.00
71964;BME280;59834;52.124;5.422;2023-07-31T05:43:52;100741.50;;;15.19;100.00
71964;BME280;59834;52.124;5.422;2023-07-31T05:46:18;100739.69;;;15.20;100.00
71964;BME280;59834;52.124;5.422;2023-07-31T05:48:45;100740.38;;;15.22;100.00
71964;BME280;59834;52.124;5.422;2023-07-31T05:51:12;100727.22;;;15.22;100.00
71964;BME280;59834;52.124;5.422;2023-07-31T05:53:38;100724.56;;;15.22;100.00
71964;BME280;59834;52.124;5.422;2023-07-31T05:56:07;100732.63;;;15.20;100.00
71964;BME280;59834;52.124;5.422;2023-07-31T05:58:34;100719.28;;;15.22;100.00
71964;BME280;59834;52.124;5.422;2023-07-31T06:01:01;100726.94;;;15.25;100.00
71964;BME280;59834;52.124;5.422;2023-07-31T06:03:27;100717.38;;;15.24;100.00
71964;BME280;59834;52.124;5.422;2023-07-31T06:05:55;100712.09;;;15.24;100.00
71964;BME280;59834;52.124;5.422;2023-07-31T06:08:21;100713.78;;;15.25;100.00
71964;BME280;59834;52.124;5.422;2023-07-31T06:10:48;100716.41;;;15.25;100.00
71964;BME280;59834;52.124;5.422;2023-07-31T06:13:15;100714.75;;;15.24;100.00
71964;BME280;59834;52.124;5.422;2023-07-31T06:15:41;100712.69;;;15.27;100.00
71964;BME280;59834;52.124;5.422;2023-07-31T06:18:08;100710.31;;;15.24;100.00
71964;BME280;59834;52.124;5.422;2023-07-31T06:20:35;100709.31;;;15.25;100.00
71964;BME280;59834;52.124;5.422;2023-07-31T06:23:01;100706.84;;;15.24;100.00
71964;BME280;59834;52.124;5.422;2023-07-31T06:25:28;100707.66;;;15.24;100.00
71964;BME280;59834;52.124;5.422;2023-07-31T06:27:55;100702.97;;;15.28;100.00
71964;BME280;59834;52.124;5.422;2023-07-31T06:30:22;100706.31;;;15.30;100.00
71964;BME280;59834;52.124;5.422;2023-07-31T06:32:48;100697.44;;;15.31;100.00
71964;BME280;59834;52.124;5.422;2023-07-31T06:35:15;100701.72;;;15.32;100.00
71964;BME280;59834;52.124;5.422;2023-07-31T06:37:41;100695.34;;;15.35;100.00
71964;BME280;59834;52.124;5.422;2023-07-31T06:40:10;100694.28;;;15.37;100.00
71964;BME280;59834;52.124;5.422;2023-07-31T06:42:39;100680.81;;;15.40;100.00
71964;BME280;59834;52.124;5.422;2023-07-31T06:45:06;100685.69;;;15.45;100.00
71964;BME280;59834;52.124;5.422;2023-07-31T06:47:33;100673.06;;;15.48;100.00
71964;BME280;59834;52.124;5.422;2023-07-31T06:50:00;100671.81;;;15.52;100.00
71964;BME280;59834;52.124;5.422;2023-07-31T06:52:27;100679.63;;;15.54;100.00
71964;BME280;59834;52.124;5.422;2023-07-31T06:55:23;100672.28;;;15.57;100.00
71964;BME280;59834;52.124;5.422;2023-07-31T06:57:52;100671.19;;;15.60;100.00
71964;BME280;59834;52.124;5.422;2023-07-31T07:00:19;100663.13;;;15.62;100.00
71964;BME280;59834;52.124;5.422;2023-07-31T07:02:47;100666.09;;;15.68;100.00
71964;BME280;59834;52.124;5.422;2023-07-31T07:05:15;100670.97;;;15.73;100.00
71964;BME280;59834;52.124;5.422;2023-07-31T07:07:42;100663.75;;;15.75;100.00
71964;BME280;59834;52.124;5.422;2023-07-31T07:10:10;100663.47;;;15.78;100.00
71964;BME280;59834;52.124;5.422;2023-07-31T07:12:36;100657.22;;;15.79;100.00
71964;BME280;59834;52.124;5.422;2023-07-31T07:15:04;100654.31;;;15.82;100.00
71964;BME280;59834;52.124;5.422;2023-07-31T07:17:31;100649.88;;;15.83;100.00
71964;BME280;59834;52.124;5.422;2023-07-31T07:19:58;100656.00;;;15.83;100.00
71964;BME280;59834;52.124;5.422;2023-07-31T07:22:26;100647.81;;;15.86;100.00
71964;BME280;59834;52.124;5.422;2023-07-31T07:24:53;100655.84;;;15.85;100.00
71964;BME280;59834;52.124;5.422;2023-07-31T07:27:20;100653.50;;;15.91;100.00
71964;BME280;59834;52.124;5.422;2023-07-31T07:29:46;100658.50;;;15.94;100.00
71964;BME280;59834;52.124;5.422;2023-07-31T07:32:13;100648.78;;;15.95;100.00
71964;BME280;59834;52.124;5.422;2023-07-31T07:34:40;100655.34;;;16.00;100.00
71964;BME280;59834;52.124;5.422;2023-07-31T07:37:06;100651.59;;;16.03;100.00
71964;BME280;59834;52.124;5.422;2023-07-31T07:39:33;100645.44;;;16.02;100.00
71964;BME280;59834;52.124;5.422;2023-07-31T07:41:59;100657.44;;;16.07;100.00
71964;BME280;59834;52.124;5.422;2023-07-31T07:44:26;100648.25;;;16.11;100.00
71964;BME280;59834;52.124;5.422;2023-07-31T07:46:53;100643.66;;;16.13;100.00
71964;BME280;59834;52.124;5.422;2023-07-31T07:49:19;100647.00;;;16.15;100.00
71964;BME280;59834;52.124;5.422;2023-07-31T07:51:49;100644.09;;;16.18;100.00
71964;BME280;59834;52.124;5.422;2023-07-31T07:54:16;100642.84;;;16.22;100.00
71964;BME280;59834;52.124;5.422;2023-07-31T07:56:47;100645.47;;;16.32;100.00
71964;BME280;59834;52.124;5.422;2023-07-31T07:59:14;100639.66;;;16.38;100.00
71964;BME280;59834;52.124;5.422;2023-07-31T08:01:41;100642.41;;;16.46;100.00
71964;BME280;59834;52.124;5.422;2023-07-31T08:04:07;100636.03;;;16.48;100.00
71964;BME280;59834;52.124;5.422;2023-07-31T08:06:34;100631.28;;;16.52;100.00
71964;BME280;59834;52.124;5.422;2023-07-31T08:09:00;100625.72;;;16.55;100.00
71964;BME280;59834;52.124;5.422;2023-07-31T08:11:32;100627.09;;;16.59;100.00
71964;BME280;59834;52.124;5.422;2023-07-31T08:13:59;100635.84;;;16.60;100.00
71964;BME280;59834;52.124;5.422;2023-07-31T08:16:26;100623.63;;;16.59;100.00
71964;BME280;59834;52.124;5.422;2023-07-31T08:18:53;100626.00;;;16.62;100.00
71964;BME280;59834;52.124;5.422;2023-07-31T08:21:21;100628.78;;;16.70;100.00
71964;BME280;59834;52.124;5.422;2023-07-31T08:23:48;100631.00;;;16.65;100.00
71964;BME280;59834;52.124;5.422;2023-07-31T08:26:16;100622.34;;;16.72;100.00
71964;BME280;59834;52.124;5.422;2023-07-31T08:28:43;100621.28;;;16.75;100.00
71964;BME280;59834;52.124;5.422;2023-07-31T08:31:10;100616.00;;;16.75;100.00
71964;BME280;59834;52.124;5.422;2023-07-31T08:33:38;100611.25;;;16.79;100.00
71964;BME280;59834;52.124;5.422;2023-07-31T08:36:04;100611.78;;;16.82;100.00
71964;BME280;59834;52.124;5.422;2023-07-31T08:38:31;100608.28;;;16.91;100.00
71964;BME280;59834;52.124;5.422;2023-07-31T08:40:58;100599.25;;;16.94;100.00
71964;BME280;59834;52.124;5.422;2023-07-31T08:43:25;100620.25;;;16.95;100.00
71964;BME280;59834;52.124;5.422;2023-07-31T08:45:53;100613.09;;;17.06;100.00
71964;BME280;59834;52.124;5.422;2023-07-31T08:48:22;100606.25;;;17.13;100.00
71964;BME280;59834;52.124;5.422;2023-07-31T08:50:51;100605.31;;;17.14;100.00
71964;BME280;59834;52.124;5.422;2023-07-31T08:53:18;100604.31;;;17.15;100.00
71964;BME280;59834;52.124;5.422;2023-07-31T08:55:45;100610.22;;;17.27;100.00
71964;BME280;59834;52.124;5.422;2023-07-31T08:58:13;100610.78;;;17.30;100.00
71964;BME280;59834;52.124;5.422;2023-07-31T09:00:41;100601.38;;;17.18;100.00
71964;BME280;59834;52.124;5.422;2023-07-31T09:03:14;100611.09;;;17.27;100.00
71964;BME280;59834;52.124;5.422;2023-07-31T09:05:44;100613.25;;;17.41;100.00
71964;BME280;59834;52.124;5.422;2023-07-31T09:08:12;100608.94;;;17.40;100.00
71964;BME280;59834;52.124;5.422;2023-07-31T09:10:43;100613.91;;;17.43;100.00
71964;BME280;59834;52.124;5.422;2023-07-31T09:13:13;100616.25;;;17.47;100.00
71964;BME280;59834;52.124;5.422;2023-07-31T09:15:40;100617.66;;;17.51;100.00
71964;BME280;59834;52.124;5.422;2023-07-31T09:18:09;100621.25;;;17.50;100.00
71964;BME280;59834;52.124;5.422;2023-07-31T09:20:36;100610.59;;;17.41;100.00
71964;BME280;59834;52.124;5.422;2023-07-31T09:23:11;100595.31;;;17.35;100.00
71964;BME280;59834;52.124;5.422;2023-07-31T09:25:39;100597.13;;;17.35;100.00
71964;BME280;59834;52.124;5.422;2023-07-31T09:28:07;100602.53;;;17.33;100.00
71964;BME280;59834;52.124;5.422;2023-07-31T09:33:13;100599.06;;;17.33;100.00
71964;BME280;59834;52.124;5.422;2023-07-31T09:35:40;100597.22;;;17.43;100.00
71964;BME280;59834;52.124;5.422;2023-07-31T09:38:09;100594.91;;;17.58;100.00
71964;BME280;59834;52.124;5.422;2023-07-31T09:40:41;100590.88;;;17.54;100.00
71964;BME280;59834;52.124;5.422;2023-07-31T09:43:12;100596.88;;;17.56;100.00
71964;BME280;59834;52.124;5.422;2023-07-31T09:45:43;100588.41;;;17.70;100.00
71964;BME280;59834;52.124;5.422;2023-07-31T09:48:15;100589.63;;;17.76;100.00
71964;BME280;59834;52.124;5.422;2023-07-31T09:50:46;100586.78;;;17.87;100.00
71964;BME280;59834;52.124;5.422;2023-07-31T09:53:15;100590.72;;;17.83;100.00
71964;BME280;59834;52.124;5.422;2023-07-31T09:55:43;100595.13;;;17.92;100.00
71964;BME280;59834;52.124;5.422;2023-07-31T09:58:12;100588.47;;;17.88;100.00
71964;BME280;59834;52.124;5.422;2023-07-31T10:00:42;100589.06;;;17.82;100.00
71964;BME280;59834;52.124;5.422;2023-07-31T10:03:10;100593.28;;;17.75;100.00
71964;BME280;59834;52.124;5.422;2023-07-31T10:05:40;100586.88;;;17.77;100.00
71964;BME280;59834;52.124;5.422;2023-07-31T10:08:09;100583.47;;;18.03;100.00
71964;BME280;59834;52.124;5.422;2023-07-31T10:10:41;100579.63;;;18.15;100.00
71964;BME280;59834;52.124;5.422;2023-07-31T10:13:08;100573.63;;;18.13;100.00
71964;BME280;59834;52.124;5.422;2023-07-31T10:15:36;100581.88;;;18.10;100.00
71964;BME280;59834;52.124;5.422;2023-07-31T10:18:06;100573.56;;;18.05;100.00
71964;BME280;59834;52.124;5.422;2023-07-31T10:20:34;100588.47;;;18.06;100.00
71964;BME280;59834;52.124;5.422;2023-07-31T10:23:02;100581.50;;;18.05;100.00
71964;BME280;59834;52.124;5.422;2023-07-31T10:25:30;100588.47;;;18.06;100.00
71964;BME280;59834;52.124;5.422;2023-07-31T10:27:58;100584.16;;;18.05;100.00
71964;BME280;59834;52.124;5.422;2023-07-31T10:30:28;100590.34;;;17.96;100.00
71964;BME280;59834;52.124;5.422;2023-07-31T10:32:57;100593.53;;;17.81;100.00
71964;BME280;59834;52.124;5.422;2023-07-31T10:35:27;100587.97;;;17.75;100.00
71964;BME280;59834;52.124;5.422;2023-07-31T10:37:54;100590.19;;;17.79;100.00
71964;BME280;59834;52.124;5.422;2023-07-31T10:40:26;100589.53;;;17.95;100.00
71964;BME280;59834;52.124;5.422;2023-07-31T10:42:55;100577.09;;;18.13;100.00
71964;BME280;59834;52.124;5.422;2023-07-31T10:45:44;100574.16;;;18.17;100.00
71964;BME280;59834;52.124;5.422;2023-07-31T10:48:16;100581.25;;;18.16;100.00
71964;BME280;59834;52.124;5.422;2023-07-31T10:50:59;100586.00;;;18.30;100.00
71964;BME280;59834;52.124;5.422;2023-07-31T10:53:34;100580.50;;;18.42;100.00
71964;BME280;59834;52.124;5.422;2023-07-31T10:56:11;100580.69;;;18.48;100.00
71964;BME280;59834;52.124;5.422;2023-07-31T10:58:44;100578.88;;;18.49;100.00
71964;BME280;59834;52.124;5.422;2023-07-31T11:01:12;100579.50;;;18.43;100.00
71964;BME280;59834;52.124;5.422;2023-07-31T11:03:46;100574.81;;;18.36;100.00
71964;BME280;59834;52.124;5.422;2023-07-31T11:06:14;100584.06;;;18.32;100.00
71964;BME280;59834;52.124;5.422;2023-07-31T11:08:47;100583.78;;;18.44;100.00
71964;BME280;59834;52.124;5.422;2023-07-31T11:11:15;100577.56;;;18.53;100.00
71964;BME280;59834;52.124;5.422;2023-07-31T11:13:53;100584.22;;;18.57;100.00
71964;BME280;59834;52.124;5.422;2023-07-31T11:16:23;100585.06;;;18.57;100.00
71964;BME280;59834;52.124;5.422;2023-07-31T11:18:52;100588.47;;;18.50;100.00
71964;BME280;59834;52.124;5.422;2023-07-31T11:21:24;100581.09;;;18.35;100.00
71964;BME280;59834;52.124;5.422;2023-07-31T11:23:53;100576.78;;;18.34;100.00
71964;BME280;59834;52.124;5.422;2023-07-31T11:26:24;100571.16;;;18.37;100.00
71964;BME280;59834;52.124;5.422;2023-07-31T11:28:51;100580.88;;;18.29;100.00
71964;BME280;59834;52.124;5.422;2023-07-31T11:31:18;100573.06;;;18.27;100.00
71964;BME280;59834;52.124;5.422;2023-07-31T11:33:48;100585.72;;;18.33;100.00
71964;BME280;59834;52.124;5.422;2023-07-31T11:36:17;100564.28;;;18.45;100.00
71964;BME280;59834;52.124;5.422;2023-07-31T11:38:47;100562.91;;;18.41;100.00
71964;BME280;59834;52.124;5.422;2023-07-31T11:41:15;100577.75;;;18.33;100.00
71964;BME280;59834;52.124;5.422;2023-07-31T11:43:43;100565.97;;;18.28;100.00
71964;BME280;59834;52.124;5.422;2023-07-31T11:46:10;100570.97;;;18.31;100.00
71964;BME280;59834;52.124;5.422;2023-07-31T11:48:37;100566.63;;;18.30;100.00
71964;BME280;59834;52.124;5.422;2023-07-31T11:51:05;100567.72;;;18.19;100.00
71964;BME280;59834;52.124;5.422;2023-07-31T11:53:37;100570.84;;;18.14;100.00
71964;BME280;59834;52.124;5.422;2023-07-31T11:56:05;100562.59;;;18.18;100.00
71964;BME280;59834;52.124;5.422;2023-07-31T11:58:35;100560.69;;;18.10;100.00
71964;BME280;59834;52.124;5.422;2023-07-31T12:01:02;100566.66;;;18.12;100.00
71964;BME280;59834;52.124;5.422;2023-07-31T12:03:31;100564.69;;;18.14;100.00
71964;BME280;59834;52.124;5.422;2023-07-31T12:05:59;100568.31;;;18.13;100.00
71964;BME280;59834;52.124;5.422;2023-07-31T12:08:26;100565.75;;;18.21;100.00
71964;BME280;59834;52.124;5.422;2023-07-31T12:10:54;100563.34;;;18.28;100.00
71964;BME280;59834;52.124;5.422;2023-07-31T12:13:26;100566.03;;;18.36;100.00
71964;BME280;59834;52.124;5.422;2023-07-31T12:15:58;100573.16;;;18.35;100.00
71964;BME280;59834;52.124;5.422;2023-07-31T12:18:26;100571.25;;;18.46;100.00
71964;BME280;59834;52.124;5.422;2023-07-31T12:21:04;100570.16;;;18.56;100.00
71964;BME280;59834;52.124;5.422;2023-07-31T12:23:35;100568.09;;;18.50;100.00
71964;BME280;59834;52.124;5.422;2023-07-31T12:28:47;100548.38;;;18.45;100.00
71964;BME280;59834;52.124;5.422;2023-07-31T12:31:23;100556.38;;;18.53;100.00
71964;BME280;59834;52.124;5.422;2023-07-31T12:33:51;100544.25;;;18.50;100.00
71964;BME280;59834;52.124;5.422;2023-07-31T12:36:22;100543.09;;;18.45;100.00
71964;BME280;59834;52.124;5.422;2023-07-31T12:38:51;100528.16;;;18.44;100.00
71964;BME280;59834;52.124;5.422;2023-07-31T12:41:18;100527.50;;;18.42;100.00
71964;BME280;59834;52.124;5.422;2023-07-31T12:43:45;100533.09;;;18.38;100.00
71964;BME280;59834;52.124;5.422;2023-07-31T12:46:12;100539.56;;;18.44;100.00
71964;BME280;59834;52.124;5.422;2023-07-31T12:48:39;100530.25;;;18.58;100.00
71964;BME280;59834;52.124;5.422;2023-07-31T12:51:07;100532.25;;;18.64;100.00
71964;BME280;59834;52.124;5.422;2023-07-31T12:53:34;100535.69;;;18.56;100.00
71964;BME280;59834;52.124;5.422;2023-07-31T12:56:01;100536.00;;;18.53;100.00